DNAA/ABV METAR and TAF weather

Enter ICAO airport designator
Station Type Date Time Source
DNAA METAR 2018/10/21 05:00 UTC NOAA

DNAA 210500Z 11003KT 5000 BR FEW008 24/22 Q1011 TEMPO 3000 BR


Station Type Date Time Source
DNAA Decoded METAR 2018/10/21 05:00 UTC NOAA

Station name not available
Oct 21, 2018 - 01:00 AM EDT / 2018.10.21 0500 UTC
Wind: from the ESE (110 degrees) at 3 MPH (3 KT):0
Visibility: 3 mile(s):0
Sky conditions: mostly clear
Weather: mist
Temperature: 75 F (24 C)
Dew Point: 71 F (22 C)
Relative Humidity: 88%
Pressure (altimeter): 29.85 in. Hg (1011 hPa)
ob: DNAA 210500Z 11003KT 5000 BR FEW008 24/22 Q1011 TEMPO 3000 BR
cycle: 5

Station Type Date Time Source
DNAA TAF 2018/10/21 06:45 UTC NOAA

TAF TAF DNAA 210340Z 2106/2212 05003KT 5000 BR FEW008
BECMG 2108/2110 23010KT 9999 NSW BKN011 PROB30
TEMPO 2115/2120 08017G30KT 5000 -TSRA BKN008 FEW020CB 2120/2122 15005KT 9999 FEW009


Example: see airport list